sensor_id;sensor_type;location;lat;lon;timestamp;temperature;humidity
64869;DHT22;51349;52.424;10.840;2023-12-04T00:04:55;-2.90;99.90
64869;DHT22;51349;52.424;10.840;2023-12-04T00:09:56;-2.90;99.90
64869;DHT22;51349;52.424;10.840;2023-12-04T00:14:56;-2.80;99.90
64869;DHT22;51349;52.424;10.840;2023-12-04T00:19:57;-2.90;99.90
64869;DHT22;51349;52.424;10.840;2023-12-04T00:24:58;-2.90;99.90
64869;DHT22;51349;52.424;10.840;2023-12-04T00:29:59;-2.90;99.90
64869;DHT22;51349;52.424;10.840;2023-12-04T00:34:59;-2.90;99.90
64869;DHT22;51349;52.424;10.840;2023-12-04T00:40:00;-2.90;99.90
64869;DHT22;51349;52.424;10.840;2023-12-04T00:45:02;-2.90;99.90
64869;DHT22;51349;52.424;10.840;2023-12-04T00:50:03;-3.00;99.90
64869;DHT22;51349;52.424;10.840;2023-12-04T00:55:05;-3.00;99.90
64869;DHT22;51349;52.424;10.840;2023-12-04T01:00:06;-2.90;99.90
64869;DHT22;51349;52.424;10.840;2023-12-04T01:05:07;-3.00;99.90
64869;DHT22;51349;52.424;10.840;2023-12-04T01:10:08;-3.00;99.90
64869;DHT22;51349;52.424;10.840;2023-12-04T01:15:09;-3.00;99.90
64869;DHT22;51349;52.424;10.840;2023-12-04T01:20:10;-3.00;99.90
64869;DHT22;51349;52.424;10.840;2023-12-04T01:25:11;-2.90;99.90
64869;DHT22;51349;52.424;10.840;2023-12-04T01:30:12;-3.00;99.90
64869;DHT22;51349;52.424;10.840;2023-12-04T01:35:14;-3.00;99.90
64869;DHT22;51349;52.424;10.840;2023-12-04T01:40:15;-3.10;99.90
64869;DHT22;51349;52.424;10.840;2023-12-04T01:45:16;-3.00;99.90
64869;DHT22;51349;52.424;10.840;2023-12-04T01:50:17;-3.10;99.90
64869;DHT22;51349;52.424;10.840;2023-12-04T01:55:18;-3.10;99.90
64869;DHT22;51349;52.424;10.840;2023-12-04T02:00:19;-3.10;99.90
64869;DHT22;51349;52.424;10.840;2023-12-04T02:05:21;-3.10;99.90
64869;DHT22;51349;52.424;10.840;2023-12-04T02:10:23;-3.10;99.90
64869;DHT22;51349;52.424;10.840;2023-12-04T02:15:23;-3.10;99.90
64869;DHT22;51349;52.424;10.840;2023-12-04T02:20:34;-3.00;99.90
64869;DHT22;51349;52.424;10.840;2023-12-04T02:25:35;-3.00;99.90
64869;DHT22;51349;52.424;10.840;2023-12-04T02:30:37;-3.00;99.90
64869;DHT22;51349;52.424;10.840;2023-12-04T02:35:39;-2.90;99.90
64869;DHT22;51349;52.424;10.840;2023-12-04T02:40:41;-2.90;99.90
64869;DHT22;51349;52.424;10.840;2023-12-04T02:45:41;-2.90;99.90
64869;DHT22;51349;52.424;10.840;2023-12-04T02:50:42;-2.80;99.90
64869;DHT22;51349;52.424;10.840;2023-12-04T02:55:43;-2.80;99.90
64869;DHT22;51349;52.424;10.840;2023-12-04T03:00:44;-2.80;99.90
64869;DHT22;51349;52.424;10.840;2023-12-04T03:05:45;-2.90;99.90
64869;DHT22;51349;52.424;10.840;2023-12-04T03:10:45;-2.90;99.90
64869;DHT22;51349;52.424;10.840;2023-12-04T03:15:46;-2.90;99.90
64869;DHT22;51349;52.424;10.840;2023-12-04T03:20:47;-2.90;99.90
64869;DHT22;51349;52.424;10.840;2023-12-04T03:25:47;-2.80;99.90
64869;DHT22;51349;52.424;10.840;2023-12-04T03:30:48;-2.80;99.90
64869;DHT22;51349;52.424;10.840;2023-12-04T03:35:49;-2.80;99.90
64869;DHT22;51349;52.424;10.840;2023-12-04T03:40:49;-2.70;99.90
64869;DHT22;51349;52.424;10.840;2023-12-04T03:45:50;-2.70;99.90
64869;DHT22;51349;52.424;10.840;2023-12-04T03:50:51;-2.70;99.90
64869;DHT22;51349;52.424;10.840;2023-12-04T03:55:52;-2.60;99.90
64869;DHT22;51349;52.424;10.840;2023-12-04T04:00:52;-2.60;99.90
64869;DHT22;51349;52.424;10.840;2023-12-04T04:05:53;-2.50;99.90
64869;DHT22;51349;52.424;10.840;2023-12-04T04:10:54;-2.50;99.90
64869;DHT22;51349;52.424;10.840;2023-12-04T04:15:54;-2.50;99.90
64869;DHT22;51349;52.424;10.840;2023-12-04T04:20:55;-2.50;99.90
64869;DHT22;51349;52.424;10.840;2023-12-04T04:25:56;-2.40;99.90
64869;DHT22;51349;52.424;10.840;2023-12-04T04:30:57;-2.30;99.90
64869;DHT22;51349;52.424;10.840;2023-12-04T04:35:58;-2.30;99.90
64869;DHT22;51349;52.424;10.840;2023-12-04T04:40:58;-2.20;99.90
64869;DHT22;51349;52.424;10.840;2023-12-04T04:45:59;-2.20;99.90
64869;DHT22;51349;52.424;10.840;2023-12-04T04:51:00;-2.10;99.90
64869;DHT22;51349;52.424;10.840;2023-12-04T04:56:00;-2.10;99.90
64869;DHT22;51349;52.424;10.840;2023-12-04T05:01:01;-2.00;99.90
64869;DHT22;51349;52.424;10.840;2023-12-04T05:06:02;-2.00;99.90
64869;DHT22;51349;52.424;10.840;2023-12-04T05:11:03;-1.90;99.90
64869;DHT22;51349;52.424;10.840;2023-12-04T05:16:05;-1.90;99.90
64869;DHT22;51349;52.424;10.840;2023-12-04T05:21:09;-1.90;99.90
64869;DHT22;51349;52.424;10.840;2023-12-04T05:26:10;-2.00;99.90
64869;DHT22;51349;52.424;10.840;2023-12-04T05:31:11;-2.00;99.90
64869;DHT22;51349;52.424;10.840;2023-12-04T05:36:11;-2.00;99.90
64869;DHT22;51349;52.424;10.840;2023-12-04T05:41:12;-2.00;99.90
64869;DHT22;51349;52.424;10.840;2023-12-04T05:46:13;-2.00;99.90
64869;DHT22;51349;52.424;10.840;2023-12-04T05:51:14;-2.00;99.90
64869;DHT22;51349;52.424;10.840;2023-12-04T05:56:15;-2.00;99.90
64869;DHT22;51349;52.424;10.840;2023-12-04T06:01:16;-2.00;99.90
64869;DHT22;51349;52.424;10.840;2023-12-04T06:06:17;-2.00;99.90
64869;DHT22;51349;52.424;10.840;2023-12-04T06:11:18;-2.00;99.90
64869;DHT22;51349;52.424;10.840;2023-12-04T06:16:18;-1.90;99.90
64869;DHT22;51349;52.424;10.840;2023-12-04T06:21:19;-1.90;99.90
64869;DHT22;51349;52.424;10.840;2023-12-04T06:26:20;-1.90;99.90
64869;DHT22;51349;52.424;10.840;2023-12-04T06:31:22;-1.90;99.90
64869;DHT22;51349;52.424;10.840;2023-12-04T06:36:24;-1.80;99.90
64869;DHT22;51349;52.424;10.840;2023-12-04T06:41:25;-1.80;99.90
64869;DHT22;51349;52.424;10.840;2023-12-04T06:46:27;-1.80;99.90
64869;DHT22;51349;52.424;10.840;2023-12-04T06:51:29;-1.80;99.90
64869;DHT22;51349;52.424;10.840;2023-12-04T06:56:30;-1.80;99.90
64869;DHT22;51349;52.424;10.840;2023-12-04T07:01:31;-1.80;99.90
64869;DHT22;51349;52.424;10.840;2023-12-04T07:06:31;-1.70;99.90
64869;DHT22;51349;52.424;10.840;2023-12-04T07:11:32;-1.70;99.90
64869;DHT22;51349;52.424;10.840;2023-12-04T07:16:41;-1.60;99.90
64869;DHT22;51349;52.424;10.840;2023-12-04T07:21:42;-1.70;99.90
64869;DHT22;51349;52.424;10.840;2023-12-04T07:26:43;-1.60;99.90
64869;DHT22;51349;52.424;10.840;2023-12-04T07:31:44;-1.70;99.90
64869;DHT22;51349;52.424;10.840;2023-12-04T07:36:44;-1.70;99.90
64869;DHT22;51349;52.424;10.840;2023-12-04T07:41:45;-1.60;99.90
64869;DHT22;51349;52.424;10.840;2023-12-04T07:46:46;-1.60;99.90
64869;DHT22;51349;52.424;10.840;2023-12-04T07:51:47;-1.50;99.90
64869;DHT22;51349;52.424;10.840;2023-12-04T07:56:47;-1.50;99.90
64869;DHT22;51349;52.424;10.840;2023-12-04T08:01:48;-1.50;99.90
64869;DHT22;51349;52.424;10.840;2023-12-04T08:06:49;-1.40;99.90
64869;DHT22;51349;52.424;10.840;2023-12-04T08:11:50;-1.40;99.90
64869;DHT22;51349;52.424;10.840;2023-12-04T08:16:51;-1.30;99.90
64869;DHT22;51349;52.424;10.840;2023-12-04T08:21:51;-1.30;99.90
64869;DHT22;51349;52.424;10.840;2023-12-04T08:26:52;-1.20;99.90
64869;DHT22;51349;52.424;10.840;2023-12-04T08:31:53;-1.10;99.90
64869;DHT22;51349;52.424;10.840;2023-12-04T08:36:54;-1.10;99.90
64869;DHT22;51349;52.424;10.840;2023-12-04T08:41:54;-1.00;99.90
64869;DHT22;51349;52.424;10.840;2023-12-04T08:46:55;-0.90;99.90
64869;DHT22;51349;52.424;10.840;2023-12-04T08:51:58;-0.80;99.90
64869;DHT22;51349;52.424;10.840;2023-12-04T08:56:59;-0.70;99.90
64869;DHT22;51349;52.424;10.840;2023-12-04T09:02:00;-0.70;99.90
64869;DHT22;51349;52.424;10.840;2023-12-04T09:07:04;-0.70;99.90
64869;DHT22;51349;52.424;10.840;2023-12-04T09:12:05;-0.60;99.90
64869;DHT22;51349;52.424;10.840;2023-12-04T09:17:08;-0.60;99.90
64869;DHT22;51349;52.424;10.840;2023-12-04T09:22:09;-0.50;99.90
64869;DHT22;51349;52.424;10.840;2023-12-04T09:27:09;-0.50;99.90
64869;DHT22;51349;52.424;10.840;2023-12-04T09:32:13;-0.40;99.90
64869;DHT22;51349;52.424;10.840;2023-12-04T09:37:14;-0.30;99.90
64869;DHT22;51349;52.424;10.840;2023-12-04T09:42:16;-0.30;99.90
64869;DHT22;51349;52.424;10.840;2023-12-04T09:47:20;-0.30;99.90
64869;DHT22;51349;52.424;10.840;2023-12-04T09:52:21;-0.30;99.90
64869;DHT22;51349;52.424;10.840;2023-12-04T09:57:23;-0.40;99.90
64869;DHT22;51349;52.424;10.840;2023-12-04T10:02:25;-0.40;99.90
64869;DHT22;51349;52.424;10.840;2023-12-04T10:07:26;-0.30;99.90
64869;DHT22;51349;52.424;10.840;2023-12-04T10:12:27;-0.30;99.90
64869;DHT22;51349;52.424;10.840;2023-12-04T10:17:33;-0.20;99.90
64869;DHT22;51349;52.424;10.840;2023-12-04T10:22:35;-0.10;99.90
64869;DHT22;51349;52.424;10.840;2023-12-04T10:27:36;-0.20;99.90
64869;DHT22;51349;52.424;10.840;2023-12-04T10:32:40;-0.30;99.90
64869;DHT22;51349;52.424;10.840;2023-12-04T10:37:42;-0.40;99.90
64869;DHT22;51349;52.424;10.840;2023-12-04T10:42:43;-0.40;99.90
64869;DHT22;51349;52.424;10.840;2023-12-04T10:47:45;-0.40;99.90
64869;DHT22;51349;52.424;10.840;2023-12-04T10:52:47;-0.20;99.90
64869;DHT22;51349;52.424;10.840;2023-12-04T10:57:50;-0.30;99.90
64869;DHT22;51349;52.424;10.840;2023-12-04T11:02:55;-0.20;99.90
64869;DHT22;51349;52.424;10.840;2023-12-04T11:08:02;0.00;99.90
64869;DHT22;51349;52.424;10.840;2023-12-04T11:13:41;0.10;99.90
64869;DHT22;51349;52.424;10.840;2023-12-04T11:18:37;0.10;99.90
64869;DHT22;51349;52.424;10.840;2023-12-04T11:23:40;0.10;99.90
64869;DHT22;51349;52.424;10.840;2023-12-04T11:28:41;0.00;99.90
64869;DHT22;51349;52.424;10.840;2023-12-04T11:33:43;0.00;99.90
64869;DHT22;51349;52.424;10.840;2023-12-04T11:38:46;0.00;99.90
64869;DHT22;51349;52.424;10.840;2023-12-04T11:43:47;0.20;99.90
64869;DHT22;51349;52.424;10.840;2023-12-04T11:48:48;0.20;99.90
64869;DHT22;51349;52.424;10.840;2023-12-04T11:53:49;0.20;99.90
64869;DHT22;51349;52.424;10.840;2023-12-04T11:58:50;0.30;99.90
64869;DHT22;51349;52.424;10.840;2023-12-04T12:03:51;0.20;99.90
64869;DHT22;51349;52.424;10.840;2023-12-04T12:08:52;0.20;99.90
64869;DHT22;51349;52.424;10.840;2023-12-04T12:13:53;0.30;99.90
64869;DHT22;51349;52.424;10.840;2023-12-04T12:18:54;0.30;99.90
64869;DHT22;51349;52.424;10.840;2023-12-04T12:23:55;0.30;99.90
64869;DHT22;51349;52.424;10.840;2023-12-04T12:28:56;0.40;99.90
64869;DHT22;51349;52.424;10.840;2023-12-04T12:33:56;0.30;99.90
64869;DHT22;51349;52.424;10.840;2023-12-04T12:38:57;0.20;99.90
64869;DHT22;51349;52.424;10.840;2023-12-04T12:44:00;0.10;99.90
64869;DHT22;51349;52.424;10.840;2023-12-04T12:49:00;0.10;99.90
64869;DHT22;51349;52.424;10.840;2023-12-04T12:54:01;0.10;99.90
64869;DHT22;51349;52.424;10.840;2023-12-04T12:59:02;0.00;99.90
64869;DHT22;51349;52.424;10.840;2023-12-04T13:04:03;0.00;99.90
64869;DHT22;51349;52.424;10.840;2023-12-04T13:09:04;0.00;99.90
64869;DHT22;51349;52.424;10.840;2023-12-04T13:14:06;0.00;99.90
64869;DHT22;51349;52.424;10.840;2023-12-04T13:19:07;0.00;99.90
64869;DHT22;51349;52.424;10.840;2023-12-04T13:24:08;0.00;99.90
64869;DHT22;51349;52.424;10.840;2023-12-04T13:29:09;-0.10;99.90
64869;DHT22;51349;52.424;10.840;2023-12-04T13:34:10;-0.10;99.90
64869;DHT22;51349;52.424;10.840;2023-12-04T13:39:12;-0.10;99.90
64869;DHT22;51349;52.424;10.840;2023-12-04T13:44:28;-0.20;99.90
64869;DHT22;51349;52.424;10.840;2023-12-04T13:49:30;-0.20;99.90
64869;DHT22;51349;52.424;10.840;2023-12-04T13:54:30;-0.20;99.90
64869;DHT22;51349;52.424;10.840;2023-12-04T13:59:44;-0.20;99.90
64869;DHT22;51349;52.424;10.840;2023-12-04T14:04:45;-0.20;99.90
64869;DHT22;51349;52.424;10.840;2023-12-04T14:09:46;-0.30;99.90
64869;DHT22;51349;52.424;10.840;2023-12-04T14:14:47;-0.30;99.90
64869;DHT22;51349;52.424;10.840;2023-12-04T14:19:50;-0.30;99.90
64869;DHT22;51349;52.424;10.840;2023-12-04T14:24:51;-0.30;99.90
64869;DHT22;51349;52.424;10.840;2023-12-04T14:29:52;-0.40;99.90
64869;DHT22;51349;52.424;10.840;2023-12-04T14:34:52;-0.40;99.90
64869;DHT22;51349;52.424;10.840;2023-12-04T14:39:54;-0.40;99.90
64869;DHT22;51349;52.424;10.840;2023-12-04T14:44:55;-0.40;99.90
64869;DHT22;51349;52.424;10.840;2023-12-04T14:49:56;-0.40;99.90
64869;DHT22;51349;52.424;10.840;2023-12-04T14:54:57;-0.50;99.90
64869;DHT22;51349;52.424;10.840;2023-12-04T14:59:57;-0.50;99.90
64869;DHT22;51349;52.424;10.840;2023-12-04T15:05:17;-0.50;99.90
64869;DHT22;51349;52.424;10.840;2023-12-04T15:10:51;-0.60;99.90
64869;DHT22;51349;52.424;10.840;2023-12-04T15:16:11;-0.60;99.90
64869;DHT22;51349;52.424;10.840;2023-12-04T15:21:14;-0.60;99.90
64869;DHT22;51349;52.424;10.840;2023-12-04T15:26:16;-0.60;99.90
64869;DHT22;51349;52.424;10.840;2023-12-04T15:31:17;-0.60;99.90
64869;DHT22;51349;52.424;10.840;2023-12-04T15:36:18;-0.60;99.90
64869;DHT22;51349;52.424;10.840;2023-12-04T15:41:22;-0.70;99.90
64869;DHT22;51349;52.424;10.840;2023-12-04T15:46:23;-0.70;99.90
64869;DHT22;51349;52.424;10.840;2023-12-04T15:51:27;-0.60;99.90
64869;DHT22;51349;52.424;10.840;2023-12-04T15:56:27;-0.70;99.90
64869;DHT22;51349;52.424;10.840;2023-12-04T16:01:28;-0.70;99.90
64869;DHT22;51349;52.424;10.840;2023-12-04T16:06:30;-0.70;99.90
64869;DHT22;51349;52.424;10.840;2023-12-04T16:11:30;-0.70;99.90
64869;DHT22;51349;52.424;10.840;2023-12-04T16:16:31;-0.70;99.90
64869;DHT22;51349;52.424;10.840;2023-12-04T16:21:32;-0.70;99.90
64869;DHT22;51349;52.424;10.840;2023-12-04T16:26:32;-0.70;99.90
64869;DHT22;51349;52.424;10.840;2023-12-04T16:31:35;-0.70;99.90
64869;DHT22;51349;52.424;10.840;2023-12-04T16:36:36;-0.70;99.90
64869;DHT22;51349;52.424;10.840;2023-12-04T16:41:37;-0.70;99.90
64869;DHT22;51349;52.424;10.840;2023-12-04T16:46:37;-0.70;99.90
64869;DHT22;51349;52.424;10.840;2023-12-04T16:51:38;-0.70;99.90
64869;DHT22;51349;52.424;10.840;2023-12-04T16:56:39;-0.70;99.90
64869;DHT22;51349;52.424;10.840;2023-12-04T17:01:40;-0.70;99.90
64869;DHT22;51349;52.424;10.840;2023-12-04T17:06:41;-0.70;99.90
64869;DHT22;51349;52.424;10.840;2023-12-04T17:11:42;-0.70;99.90
64869;DHT22;51349;52.424;10.840;2023-12-04T17:16:43;-0.70;99.90
64869;DHT22;51349;52.424;10.840;2023-12-04T17:21:43;-0.70;99.90
64869;DHT22;51349;52.424;10.840;2023-12-04T17:26:44;-0.70;99.90
64869;DHT22;51349;52.424;10.840;2023-12-04T17:31:45;-0.70;99.90
64869;DHT22;51349;52.424;10.840;2023-12-04T17:36:46;-0.60;99.90
64869;DHT22;51349;52.424;10.840;2023-12-04T17:41:47;-0.60;99.90
64869;DHT22;51349;52.424;10.840;2023-12-04T17:46:48;-0.60;99.90
64869;DHT22;51349;52.424;10.840;2023-12-04T17:51:49;-0.50;99.90
64869;DHT22;51349;52.424;10.840;2023-12-04T17:56:50;-0.50;99.90
64869;DHT22;51349;52.424;10.840;2023-12-04T18:01:50;-0.50;99.90
64869;DHT22;51349;52.424;10.840;2023-12-04T18:06:51;-0.60;99.90
64869;DHT22;51349;52.424;10.840;2023-12-04T18:11:52;-0.50;99.90
64869;DHT22;51349;52.424;10.840;2023-12-04T18:16:53;-0.50;99.90
64869;DHT22;51349;52.424;10.840;2023-12-04T18:21:53;-0.60;99.90
64869;DHT22;51349;52.424;10.840;2023-12-04T18:26:54;-0.50;99.90
64869;DHT22;51349;52.424;10.840;2023-12-04T18:31:55;-0.50;99.90
64869;DHT22;51349;52.424;10.840;2023-12-04T18:37:03;-0.50;99.90
64869;DHT22;51349;52.424;10.840;2023-12-04T18:42:06;-0.40;99.90
64869;DHT22;51349;52.424;10.840;2023-12-04T18:47:08;-0.40;99.90
64869;DHT22;51349;52.424;10.840;2023-12-04T18:52:12;-0.40;99.90
64869;DHT22;51349;52.424;10.840;2023-12-04T18:57:13;-0.40;99.90
64869;DHT22;51349;52.424;10.840;2023-12-04T19:02:14;-0.40;99.90
64869;DHT22;51349;52.424;10.840;2023-12-04T19:07:15;-0.40;99.90
64869;DHT22;51349;52.424;10.840;2023-12-04T19:12:16;-0.50;99.90
64869;DHT22;51349;52.424;10.840;2023-12-04T19:17:16;-0.50;99.90
64869;DHT22;51349;52.424;10.840;2023-12-04T19:22:17;-0.50;99.90
64869;DHT22;51349;52.424;10.840;2023-12-04T19:27:18;-0.50;99.90
64869;DHT22;51349;52.424;10.840;2023-12-04T19:32:18;-0.50;99.90
64869;DHT22;51349;52.424;10.840;2023-12-04T19:37:19;-0.60;99.90
64869;DHT22;51349;52.424;10.840;2023-12-04T19:42:20;-0.60;99.90
64869;DHT22;51349;52.424;10.840;2023-12-04T19:47:20;-0.60;99.90
64869;DHT22;51349;52.424;10.840;2023-12-04T19:52:21;-0.70;99.90
64869;DHT22;51349;52.424;10.840;2023-12-04T19:57:22;-0.70;99.90
64869;DHT22;51349;52.424;10.840;2023-12-04T20:02:24;-0.70;99.90
64869;DHT22;51349;52.424;10.840;2023-12-04T20:07:25;-0.70;99.90
64869;DHT22;51349;52.424;10.840;2023-12-04T20:12:26;-0.70;99.90
64869;DHT22;51349;52.424;10.840;2023-12-04T20:17:29;-0.70;99.90
64869;DHT22;51349;52.424;10.840;2023-12-04T20:22:30;-0.70;99.90
64869;DHT22;51349;52.424;10.840;2023-12-04T20:27:31;-0.70;99.90
64869;DHT22;51349;52.424;10.840;2023-12-04T20:32:32;-0.70;99.90
64869;DHT22;51349;52.424;10.840;2023-12-04T20:37:33;-0.70;99.90
64869;DHT22;51349;52.424;10.840;2023-12-04T20:42:33;-0.70;99.90
64869;DHT22;51349;52.424;10.840;2023-12-04T20:47:34;-0.70;99.90
64869;DHT22;51349;52.424;10.840;2023-12-04T20:52:36;-0.70;99.90
64869;DHT22;51349;52.424;10.840;2023-12-04T20:57:36;-0.70;99.90
64869;DHT22;51349;52.424;10.840;2023-12-04T21:02:38;-0.70;99.90
64869;DHT22;51349;52.424;10.840;2023-12-04T21:07:39;-0.70;99.90
64869;DHT22;51349;52.424;10.840;2023-12-04T21:12:39;-0.70;99.90
64869;DHT22;51349;52.424;10.840;2023-12-04T21:17:41;-0.80;99.90
64869;DHT22;51349;52.424;10.840;2023-12-04T21:22:42;-0.80;99.90
64869;DHT22;51349;52.424;10.840;2023-12-04T21:27:42;-0.80;99.90
64869;DHT22;51349;52.424;10.840;2023-12-04T21:32:43;-0.80;99.90
64869;DHT22;51349;52.424;10.840;2023-12-04T21:37:44;-0.80;99.90
64869;DHT22;51349;52.424;10.840;2023-12-04T21:42:45;-0.80;99.90
64869;DHT22;51349;52.424;10.840;2023-12-04T21:47:45;-0.80;99.90
64869;DHT22;51349;52.424;10.840;2023-12-04T21:52:46;-0.80;99.90
64869;DHT22;51349;52.424;10.840;2023-12-04T21:57:47;-0.80;99.90
64869;DHT22;51349;52.424;10.840;2023-12-04T22:02:48;-0.80;99.90
64869;DHT22;51349;52.424;10.840;2023-12-04T22:07:49;-0.80;99.90
64869;DHT22;51349;52.424;10.840;2023-12-04T22:12:50;-0.80;99.90
64869;DHT22;51349;52.424;10.840;2023-12-04T22:17:50;-0.80;99.90
64869;DHT22;51349;52.424;10.840;2023-12-04T22:22:54;-0.80;99.90
64869;DHT22;51349;52.424;10.840;2023-12-04T22:27:55;-0.80;99.90
64869;DHT22;51349;52.424;10.840;2023-12-04T22:32:56;-0.80;99.90
64869;DHT22;51349;52.424;10.840;2023-12-04T22:37:57;-0.80;99.90
64869;DHT22;51349;52.424;10.840;2023-12-04T22:43:00;-0.80;99.90
64869;DHT22;51349;52.424;10.840;2023-12-04T22:48:01;-0.80;99.90
64869;DHT22;51349;52.424;10.840;2023-12-04T22:53:02;-0.80;99.90
64869;DHT22;51349;52.424;10.840;2023-12-04T22:58:03;-0.80;99.90
64869;DHT22;51349;52.424;10.840;2023-12-04T23:03:04;-0.80;99.90
64869;DHT22;51349;52.424;10.840;2023-12-04T23:08:05;-0.80;99.90
64869;DHT22;51349;52.424;10.840;2023-12-04T23:13:06;-0.80;99.90
64869;DHT22;51349;52.424;10.840;2023-12-04T23:18:07;-0.80;99.90
64869;DHT22;51349;52.424;10.840;2023-12-04T23:23:07;-0.80;99.90
64869;DHT22;51349;52.424;10.840;2023-12-04T23:28:08;-0.90;99.90
64869;DHT22;51349;52.424;10.840;2023-12-04T23:33:09;-0.90;99.90
64869;DHT22;51349;52.424;10.840;2023-12-04T23:38:10;-0.90;99.90
64869;DHT22;51349;52.424;10.840;2023-12-04T23:43:11;-0.90;99.90
64869;DHT22;51349;52.424;10.840;2023-12-04T23:48:12;-0.90;99.90
64869;DHT22;51349;52.424;10.840;2023-12-04T23:53:13;-0.90;99.90
64869;DHT22;51349;52.424;10.840;2023-12-04T23:58:14;-0.90;99.90
